sensor_id;sensor_type;location;lat;lon;timestamp;temperature;humidity
17341;DHT22;8788;49.930;8.660;2023-03-01T00:02:17;2.70;90.30
17341;DHT22;8788;49.930;8.660;2023-03-01T00:04:44;2.80;90.40
17341;DHT22;8788;49.930;8.660;2023-03-01T00:07:11;2.80;90.40
17341;DHT22;8788;49.930;8.660;2023-03-01T00:09:38;2.80;90.70
17341;DHT22;8788;49.930;8.660;2023-03-01T00:12:06;2.80;90.30
17341;DHT22;8788;49.930;8.660;2023-03-01T00:14:33;2.80;90.70
17341;DHT22;8788;49.930;8.660;2023-03-01T00:17:02;2.80;90.40
17341;DHT22;8788;49.930;8.660;2023-03-01T00:19:29;2.80;90.50
17341;DHT22;8788;49.930;8.660;2023-03-01T00:21:58;2.80;90.50
17341;DHT22;8788;49.930;8.660;2023-03-01T00:24:25;2.70;90.60
17341;DHT22;8788;49.930;8.660;2023-03-01T00:26:53;2.70;90.60
17341;DHT22;8788;49.930;8.660;2023-03-01T00:29:21;2.70;90.70
17341;DHT22;8788;49.930;8.660;2023-03-01T00:31:48;2.70;90.70
17341;DHT22;8788;49.930;8.660;2023-03-01T00:34:17;2.60;90.80
17341;DHT22;8788;49.930;8.660;2023-03-01T00:36:45;2.60;91.00
17341;DHT22;8788;49.930;8.660;2023-03-01T00:39:14;2.60;91.10
17341;DHT22;8788;49.930;8.660;2023-03-01T00:41:42;2.60;91.10
17341;DHT22;8788;49.930;8.660;2023-03-01T00:44:10;2.60;91.20
17341;DHT22;8788;49.930;8.660;2023-03-01T00:46:38;2.60;91.20
17341;DHT22;8788;49.930;8.660;2023-03-01T00:49:05;2.60;91.20
17341;DHT22;8788;49.930;8.660;2023-03-01T00:51:33;2.60;91.30
17341;DHT22;8788;49.930;8.660;2023-03-01T00:54:01;2.60;91.30
17341;DHT22;8788;49.930;8.660;2023-03-01T00:56:29;2.60;91.40
17341;DHT22;8788;49.930;8.660;2023-03-01T00:58:57;2.50;91.50
17341;DHT22;8788;49.930;8.660;2023-03-01T01:01:26;2.50;91.60
17341;DHT22;8788;49.930;8.660;2023-03-01T01:03:57;2.50;91.60
17341;DHT22;8788;49.930;8.660;2023-03-01T01:06:26;2.60;91.70
17341;DHT22;8788;49.930;8.660;2023-03-01T01:08:55;2.50;91.70
17341;DHT22;8788;49.930;8.660;2023-03-01T01:11:24;2.60;91.70
17341;DHT22;8788;49.930;8.660;2023-03-01T01:13:52;2.50;91.80
17341;DHT22;8788;49.930;8.660;2023-03-01T01:16:21;2.50;91.80
17341;DHT22;8788;49.930;8.660;2023-03-01T01:18:49;2.50;92.30
17341;DHT22;8788;49.930;8.660;2023-03-01T01:21:19;2.40;92.00
17341;DHT22;8788;49.930;8.660;2023-03-01T01:23:48;2.40;92.10
17341;DHT22;8788;49.930;8.660;2023-03-01T01:26:19;2.40;92.20
17341;DHT22;8788;49.930;8.660;2023-03-01T01:28:46;2.40;92.20
17341;DHT22;8788;49.930;8.660;2023-03-01T01:31:14;2.40;92.30
17341;DHT22;8788;49.930;8.660;2023-03-01T01:33:42;2.30;92.40
17341;DHT22;8788;49.930;8.660;2023-03-01T01:36:10;2.20;92.50
17341;DHT22;8788;49.930;8.660;2023-03-01T01:38:37;2.20;92.60
17341;DHT22;8788;49.930;8.660;2023-03-01T01:41:06;2.30;92.70
17341;DHT22;8788;49.930;8.660;2023-03-01T01:43:36;2.20;92.70
17341;DHT22;8788;49.930;8.660;2023-03-01T01:46:05;2.20;92.80
17341;DHT22;8788;49.930;8.660;2023-03-01T01:48:39;2.30;92.90
17341;DHT22;8788;49.930;8.660;2023-03-01T01:51:11;2.30;93.00
17341;DHT22;8788;49.930;8.660;2023-03-01T01:53:40;2.30;93.10
17341;DHT22;8788;49.930;8.660;2023-03-01T01:56:08;2.30;93.10
17341;DHT22;8788;49.930;8.660;2023-03-01T01:58:38;2.30;93.20
17341;DHT22;8788;49.930;8.660;2023-03-01T02:01:07;2.30;93.10
17341;DHT22;8788;49.930;8.660;2023-03-01T02:03:37;2.30;93.20
17341;DHT22;8788;49.930;8.660;2023-03-01T02:06:15;2.20;93.20
17341;DHT22;8788;49.930;8.660;2023-03-01T02:08:46;2.20;93.20
17341;DHT22;8788;49.930;8.660;2023-03-01T02:11:14;2.30;93.70
17341;DHT22;8788;49.930;8.660;2023-03-01T02:13:43;2.20;93.40
17341;DHT22;8788;49.930;8.660;2023-03-01T02:16:13;2.20;93.60
17341;DHT22;8788;49.930;8.660;2023-03-01T02:18:42;2.20;93.70
17341;DHT22;8788;49.930;8.660;2023-03-01T02:21:29;2.10;93.80
17341;DHT22;8788;49.930;8.660;2023-03-01T02:23:59;2.10;93.90
17341;DHT22;8788;49.930;8.660;2023-03-01T02:26:34;2.20;94.00
17341;DHT22;8788;49.930;8.660;2023-03-01T02:29:05;2.20;94.20
17341;DHT22;8788;49.930;8.660;2023-03-01T02:31:32;2.20;94.20
17341;DHT22;8788;49.930;8.660;2023-03-01T02:34:13;2.20;94.30
17341;DHT22;8788;49.930;8.660;2023-03-01T02:36:44;2.20;94.30
17341;DHT22;8788;49.930;8.660;2023-03-01T02:39:15;2.20;94.40
17341;DHT22;8788;49.930;8.660;2023-03-01T02:41:47;2.20;94.50
17341;DHT22;8788;49.930;8.660;2023-03-01T02:44:17;2.20;94.60
17341;DHT22;8788;49.930;8.660;2023-03-01T02:46:46;2.30;94.80
17341;DHT22;8788;49.930;8.660;2023-03-01T02:49:23;2.30;94.80
17341;DHT22;8788;49.930;8.660;2023-03-01T02:52:01;2.30;94.90
17341;DHT22;8788;49.930;8.660;2023-03-01T02:54:36;2.30;95.00
17341;DHT22;8788;49.930;8.660;2023-03-01T02:57:07;2.40;95.00
17341;DHT22;8788;49.930;8.660;2023-03-01T02:59:37;2.30;95.00
17341;DHT22;8788;49.930;8.660;2023-03-01T03:02:08;2.40;95.10
17341;DHT22;8788;49.930;8.660;2023-03-01T03:04:46;2.30;95.10
17341;DHT22;8788;49.930;8.660;2023-03-01T03:07:13;2.30;95.20
17341;DHT22;8788;49.930;8.660;2023-03-01T03:09:40;2.30;95.20
17341;DHT22;8788;49.930;8.660;2023-03-01T03:12:07;2.30;95.30
17341;DHT22;8788;49.930;8.660;2023-03-01T03:14:37;2.30;95.40
17341;DHT22;8788;49.930;8.660;2023-03-01T03:17:07;2.30;95.50
17341;DHT22;8788;49.930;8.660;2023-03-01T03:19:41;2.30;95.60
17341;DHT22;8788;49.930;8.660;2023-03-01T03:22:11;2.20;95.60
17341;DHT22;8788;49.930;8.660;2023-03-01T03:24:38;2.20;95.70
17341;DHT22;8788;49.930;8.660;2023-03-01T03:27:06;2.20;95.80
17341;DHT22;8788;49.930;8.660;2023-03-01T03:29:33;2.20;96.00
17341;DHT22;8788;49.930;8.660;2023-03-01T03:32:02;2.20;96.10
17341;DHT22;8788;49.930;8.660;2023-03-01T03:34:29;2.20;96.10
17341;DHT22;8788;49.930;8.660;2023-03-01T03:36:56;2.20;96.20
17341;DHT22;8788;49.930;8.660;2023-03-01T03:39:25;2.20;96.30
17341;DHT22;8788;49.930;8.660;2023-03-01T03:41:52;2.30;96.30
17341;DHT22;8788;49.930;8.660;2023-03-01T03:44:20;2.30;96.30
17341;DHT22;8788;49.930;8.660;2023-03-01T03:46:47;2.30;96.40
17341;DHT22;8788;49.930;8.660;2023-03-01T03:49:15;2.30;96.40
17341;DHT22;8788;49.930;8.660;2023-03-01T03:51:45;2.40;96.50
17341;DHT22;8788;49.930;8.660;2023-03-01T03:54:12;2.40;96.40
17341;DHT22;8788;49.930;8.660;2023-03-01T03:56:39;2.40;96.50
17341;DHT22;8788;49.930;8.660;2023-03-01T03:59:06;2.30;96.50
17341;DHT22;8788;49.930;8.660;2023-03-01T04:01:33;2.30;96.70
17341;DHT22;8788;49.930;8.660;2023-03-01T04:04:00;2.30;96.70
17341;DHT22;8788;49.930;8.660;2023-03-01T04:06:31;2.30;96.80
17341;DHT22;8788;49.930;8.660;2023-03-01T04:08:58;2.30;96.90
17341;DHT22;8788;49.930;8.660;2023-03-01T04:11:28;2.30;97.00
17341;DHT22;8788;49.930;8.660;2023-03-01T04:13:57;2.30;97.10
17341;DHT22;8788;49.930;8.660;2023-03-01T04:16:25;2.20;97.10
17341;DHT22;8788;49.930;8.660;2023-03-01T04:18:52;2.20;97.20
17341;DHT22;8788;49.930;8.660;2023-03-01T04:21:21;2.20;97.20
17341;DHT22;8788;49.930;8.660;2023-03-01T04:23:49;2.20;97.30
17341;DHT22;8788;49.930;8.660;2023-03-01T04:26:18;2.30;97.40
17341;DHT22;8788;49.930;8.660;2023-03-01T04:28:46;2.20;97.40
17341;DHT22;8788;49.930;8.660;2023-03-01T04:31:16;2.20;97.50
17341;DHT22;8788;49.930;8.660;2023-03-01T04:33:45;2.20;97.60
17341;DHT22;8788;49.930;8.660;2023-03-01T04:36:14;2.20;97.60
17341;DHT22;8788;49.930;8.660;2023-03-01T04:38:42;2.20;97.60
17341;DHT22;8788;49.930;8.660;2023-03-01T04:41:15;2.20;97.70
17341;DHT22;8788;49.930;8.660;2023-03-01T04:43:43;2.10;97.80
17341;DHT22;8788;49.930;8.660;2023-03-01T04:46:12;2.20;97.90
17341;DHT22;8788;49.930;8.660;2023-03-01T04:48:41;2.20;97.90
17341;DHT22;8788;49.930;8.660;2023-03-01T04:51:09;2.10;98.10
17341;DHT22;8788;49.930;8.660;2023-03-01T04:53:39;2.00;98.10
17341;DHT22;8788;49.930;8.660;2023-03-01T04:56:06;2.00;98.30
17341;DHT22;8788;49.930;8.660;2023-03-01T04:58:35;2.00;98.40
17341;DHT22;8788;49.930;8.660;2023-03-01T05:01:10;2.00;98.40
17341;DHT22;8788;49.930;8.660;2023-03-01T05:03:41;2.00;98.50
17341;DHT22;8788;49.930;8.660;2023-03-01T05:06:09;2.00;98.60
17341;DHT22;8788;49.930;8.660;2023-03-01T05:08:37;1.90;98.70
17341;DHT22;8788;49.930;8.660;2023-03-01T05:11:05;1.90;98.90
17341;DHT22;8788;49.930;8.660;2023-03-01T05:13:36;1.90;99.00
17341;DHT22;8788;49.930;8.660;2023-03-01T05:16:05;1.90;99.10
17341;DHT22;8788;49.930;8.660;2023-03-01T05:18:33;1.90;99.20
17341;DHT22;8788;49.930;8.660;2023-03-01T05:21:03;1.90;99.30
17341;DHT22;8788;49.930;8.660;2023-03-01T05:23:31;2.00;99.40
17341;DHT22;8788;49.930;8.660;2023-03-01T05:25:58;2.10;99.30
17341;DHT22;8788;49.930;8.660;2023-03-01T05:28:26;2.10;99.60
17341;DHT22;8788;49.930;8.660;2023-03-01T05:30:55;2.10;99.20
17341;DHT22;8788;49.930;8.660;2023-03-01T05:33:23;2.10;99.30
17341;DHT22;8788;49.930;8.660;2023-03-01T05:35:51;2.10;99.30
17341;DHT22;8788;49.930;8.660;2023-03-01T05:38:20;2.10;99.30
17341;DHT22;8788;49.930;8.660;2023-03-01T05:40:48;2.10;99.30
17341;DHT22;8788;49.930;8.660;2023-03-01T05:43:16;2.10;99.40
17341;DHT22;8788;49.930;8.660;2023-03-01T05:45:44;2.10;99.50
17341;DHT22;8788;49.930;8.660;2023-03-01T05:48:13;2.10;99.60
17341;DHT22;8788;49.930;8.660;2023-03-01T05:50:42;2.00;99.60
17341;DHT22;8788;49.930;8.660;2023-03-01T05:53:10;2.10;99.70
17341;DHT22;8788;49.930;8.660;2023-03-01T05:55:38;2.10;99.70
17341;DHT22;8788;49.930;8.660;2023-03-01T05:58:07;2.10;99.70
17341;DHT22;8788;49.930;8.660;2023-03-01T06:00:36;2.10;99.80
17341;DHT22;8788;49.930;8.660;2023-03-01T06:03:03;2.10;99.80
17341;DHT22;8788;49.930;8.660;2023-03-01T06:05:32;2.20;99.70
17341;DHT22;8788;49.930;8.660;2023-03-01T06:08:00;2.10;99.70
17341;DHT22;8788;49.930;8.660;2023-03-01T06:10:27;2.10;99.70
17341;DHT22;8788;49.930;8.660;2023-03-01T06:12:54;2.10;99.90
17341;DHT22;8788;49.930;8.660;2023-03-01T06:15:23;2.10;99.80
17341;DHT22;8788;49.930;8.660;2023-03-01T06:17:51;2.10;99.90
17341;DHT22;8788;49.930;8.660;2023-03-01T06:20:20;2.10;99.90
17341;DHT22;8788;49.930;8.660;2023-03-01T06:22:49;2.10;99.90
17341;DHT22;8788;49.930;8.660;2023-03-01T06:25:18;2.10;99.90
17341;DHT22;8788;49.930;8.660;2023-03-01T06:27:46;2.10;99.90
17341;DHT22;8788;49.930;8.660;2023-03-01T06:30:15;2.20;99.90
17341;DHT22;8788;49.930;8.660;2023-03-01T06:32:43;2.20;99.90
17341;DHT22;8788;49.930;8.660;2023-03-01T06:35:10;2.20;99.90
17341;DHT22;8788;49.930;8.660;2023-03-01T06:37:38;2.30;99.90
17341;DHT22;8788;49.930;8.660;2023-03-01T06:40:08;2.20;99.90
17341;DHT22;8788;49.930;8.660;2023-03-01T06:42:38;2.30;99.90
17341;DHT22;8788;49.930;8.660;2023-03-01T06:45:07;2.40;99.90
17341;DHT22;8788;49.930;8.660;2023-03-01T06:47:34;2.90;99.90
17341;DHT22;8788;49.930;8.660;2023-03-01T06:50:02;3.10;99.90
17341;DHT22;8788;49.930;8.660;2023-03-01T06:52:30;3.20;99.90
17341;DHT22;8788;49.930;8.660;2023-03-01T06:54:57;3.10;99.90
17341;DHT22;8788;49.930;8.660;2023-03-01T06:57:25;2.90;99.70
17341;DHT22;8788;49.930;8.660;2023-03-01T06:59:52;2.90;99.70
17341;DHT22;8788;49.930;8.660;2023-03-01T07:02:19;2.90;99.70
17341;DHT22;8788;49.930;8.660;2023-03-01T07:04:48;2.90;99.90
17341;DHT22;8788;49.930;8.660;2023-03-01T07:07:16;2.90;99.70
17341;DHT22;8788;49.930;8.660;2023-03-01T07:09:43;2.90;99.60
17341;DHT22;8788;49.930;8.660;2023-03-01T07:12:11;2.80;99.70
17341;DHT22;8788;49.930;8.660;2023-03-01T07:14:39;2.80;99.90
17341;DHT22;8788;49.930;8.660;2023-03-01T07:17:07;2.80;99.60
17341;DHT22;8788;49.930;8.660;2023-03-01T07:19:34;2.80;99.70
17341;DHT22;8788;49.930;8.660;2023-03-01T07:22:02;2.90;99.70
17341;DHT22;8788;49.930;8.660;2023-03-01T07:24:29;3.00;99.80
17341;DHT22;8788;49.930;8.660;2023-03-01T07:26:57;3.00;99.80
17341;DHT22;8788;49.930;8.660;2023-03-01T07:29:24;3.10;99.80
17341;DHT22;8788;49.930;8.660;2023-03-01T07:31:52;3.20;99.70
17341;DHT22;8788;49.930;8.660;2023-03-01T07:34:19;3.30;99.70
17341;DHT22;8788;49.930;8.660;2023-03-01T07:36:46;3.30;99.70
17341;DHT22;8788;49.930;8.660;2023-03-01T07:39:13;3.30;99.60
17341;DHT22;8788;49.930;8.660;2023-03-01T07:41:40;3.40;99.70
17341;DHT22;8788;49.930;8.660;2023-03-01T07:44:07;3.40;99.60
17341;DHT22;8788;49.930;8.660;2023-03-01T07:46:34;3.40;99.60
17341;DHT22;8788;49.930;8.660;2023-03-01T07:49:03;3.50;99.70
17341;DHT22;8788;49.930;8.660;2023-03-01T07:51:31;3.60;99.50
17341;DHT22;8788;49.930;8.660;2023-03-01T07:53:58;3.60;99.40
17341;DHT22;8788;49.930;8.660;2023-03-01T07:56:25;3.60;99.70
17341;DHT22;8788;49.930;8.660;2023-03-01T07:58:52;3.70;99.40
17341;DHT22;8788;49.930;8.660;2023-03-01T08:01:20;3.70;99.40
17341;DHT22;8788;49.930;8.660;2023-03-01T08:03:48;3.60;99.30
17341;DHT22;8788;49.930;8.660;2023-03-01T08:06:17;3.60;99.40
17341;DHT22;8788;49.930;8.660;2023-03-01T08:08:44;3.70;99.40
17341;DHT22;8788;49.930;8.660;2023-03-01T08:11:13;3.70;99.40
17341;DHT22;8788;49.930;8.660;2023-03-01T08:13:42;3.70;99.30
17341;DHT22;8788;49.930;8.660;2023-03-01T08:16:11;3.70;99.40
17341;DHT22;8788;49.930;8.660;2023-03-01T08:18:39;3.70;99.30
17341;DHT22;8788;49.930;8.660;2023-03-01T08:21:08;3.80;99.30
17341;DHT22;8788;49.930;8.660;2023-03-01T08:23:37;3.80;99.30
17341;DHT22;8788;49.930;8.660;2023-03-01T08:26:06;3.80;99.30
17341;DHT22;8788;49.930;8.660;2023-03-01T08:28:34;3.90;99.30
17341;DHT22;8788;49.930;8.660;2023-03-01T08:31:02;4.00;99.10
17341;DHT22;8788;49.930;8.660;2023-03-01T08:33:29;4.00;99.10
17341;DHT22;8788;49.930;8.660;2023-03-01T08:36:03;4.10;99.00
17341;DHT22;8788;49.930;8.660;2023-03-01T08:38:32;4.10;98.90
17341;DHT22;8788;49.930;8.660;2023-03-01T08:41:02;4.10;98.90
17341;DHT22;8788;49.930;8.660;2023-03-01T08:43:30;4.20;98.90
17341;DHT22;8788;49.930;8.660;2023-03-01T08:45:57;4.20;98.90
17341;DHT22;8788;49.930;8.660;2023-03-01T08:48:25;4.30;98.80
17341;DHT22;8788;49.930;8.660;2023-03-01T08:50:52;4.30;98.70
17341;DHT22;8788;49.930;8.660;2023-03-01T08:53:19;4.40;98.60
17341;DHT22;8788;49.930;8.660;2023-03-01T08:55:46;4.50;98.80
17341;DHT22;8788;49.930;8.660;2023-03-01T08:58:14;4.50;98.60
17341;DHT22;8788;49.930;8.660;2023-03-01T09:00:41;4.60;98.60
17341;DHT22;8788;49.930;8.660;2023-03-01T09:03:08;4.70;98.60
17341;DHT22;8788;49.930;8.660;2023-03-01T09:05:35;4.80;98.40
17341;DHT22;8788;49.930;8.660;2023-03-01T09:08:03;4.80;98.20
17341;DHT22;8788;49.930;8.660;2023-03-01T09:10:30;4.80;98.20
17341;DHT22;8788;49.930;8.660;2023-03-01T09:12:57;4.90;98.20
17341;DHT22;8788;49.930;8.660;2023-03-01T09:15:25;4.90;98.10
17341;DHT22;8788;49.930;8.660;2023-03-01T09:17:52;5.00;98.10
17341;DHT22;8788;49.930;8.660;2023-03-01T09:20:19;5.00;98.10
17341;DHT22;8788;49.930;8.660;2023-03-01T09:22:46;5.10;97.80
17341;DHT22;8788;49.930;8.660;2023-03-01T09:25:13;5.20;98.00
17341;DHT22;8788;49.930;8.660;2023-03-01T09:27:41;5.30;98.10
17341;DHT22;8788;49.930;8.660;2023-03-01T09:30:09;5.50;97.70
17341;DHT22;8788;49.930;8.660;2023-03-01T09:32:37;5.60;97.50
17341;DHT22;8788;49.930;8.660;2023-03-01T09:35:08;5.60;97.50
17341;DHT22;8788;49.930;8.660;2023-03-01T09:37:36;5.60;97.30
17341;DHT22;8788;49.930;8.660;2023-03-01T09:40:05;5.70;97.30
17341;DHT22;8788;49.930;8.660;2023-03-01T09:42:35;5.70;97.30
17341;DHT22;8788;49.930;8.660;2023-03-01T09:45:06;5.90;97.30
17341;DHT22;8788;49.930;8.660;2023-03-01T09:47:39;6.00;97.20
17341;DHT22;8788;49.930;8.660;2023-03-01T09:50:11;6.10;96.90
17341;DHT22;8788;49.930;8.660;2023-03-01T09:52:41;6.00;96.60
17341;DHT22;8788;49.930;8.660;2023-03-01T09:55:11;6.00;96.60
17341;DHT22;8788;49.930;8.660;2023-03-01T09:57:46;6.00;96.70
17341;DHT22;8788;49.930;8.660;2023-03-01T10:00:22;6.00;96.60
17341;DHT22;8788;49.930;8.660;2023-03-01T10:02:58;6.20;96.70
17341;DHT22;8788;49.930;8.660;2023-03-01T10:05:44;6.30;96.70
17341;DHT22;8788;49.930;8.660;2023-03-01T10:08:27;6.40;96.60
17341;DHT22;8788;49.930;8.660;2023-03-01T10:10:57;6.60;96.60
17341;DHT22;8788;49.930;8.660;2023-03-01T10:13:29;6.70;96.50
17341;DHT22;8788;49.930;8.660;2023-03-01T10:16:05;6.80;96.10
17341;DHT22;8788;49.930;8.660;2023-03-01T10:18:34;6.90;96.10
17341;DHT22;8788;49.930;8.660;2023-03-01T10:21:13;7.00;95.90
17341;DHT22;8788;49.930;8.660;2023-03-01T10:23:42;7.00;95.60
17341;DHT22;8788;49.930;8.660;2023-03-01T10:26:21;7.00;95.40
17341;DHT22;8788;49.930;8.660;2023-03-01T10:28:57;7.10;95.30
17341;DHT22;8788;49.930;8.660;2023-03-01T10:31:34;7.20;95.40
17341;DHT22;8788;49.930;8.660;2023-03-01T10:34:10;7.30;95.10
17341;DHT22;8788;49.930;8.660;2023-03-01T10:36:39;7.40;95.00
17341;DHT22;8788;49.930;8.660;2023-03-01T10:39:13;7.50;94.90
17341;DHT22;8788;49.930;8.660;2023-03-01T10:41:57;7.70;94.70
17341;DHT22;8788;49.930;8.660;2023-03-01T10:44:42;7.70;93.80
17341;DHT22;8788;49.930;8.660;2023-03-01T10:47:15;7.60;93.50
17341;DHT22;8788;49.930;8.660;2023-03-01T10:50:01;7.70;93.70
17341;DHT22;8788;49.930;8.660;2023-03-01T10:52:31;7.90;93.90
17341;DHT22;8788;49.930;8.660;2023-03-01T10:55:02;8.10;93.90
17341;DHT22;8788;49.930;8.660;2023-03-01T10:57:35;8.20;93.50
17341;DHT22;8788;49.930;8.660;2023-03-01T11:00:16;8.20;93.10
17341;DHT22;8788;49.930;8.660;2023-03-01T11:02:47;8.20;92.90
17341;DHT22;8788;49.930;8.660;2023-03-01T11:05:23;8.20;92.90
17341;DHT22;8788;49.930;8.660;2023-03-01T11:07:52;8.30;92.80
17341;DHT22;8788;49.930;8.660;2023-03-01T11:10:24;8.40;92.50
17341;DHT22;8788;49.930;8.660;2023-03-01T11:12:51;8.60;92.50
17341;DHT22;8788;49.930;8.660;2023-03-01T11:15:22;8.60;92.00
17341;DHT22;8788;49.930;8.660;2023-03-01T11:17:50;8.70;91.80
17341;DHT22;8788;49.930;8.660;2023-03-01T11:20:25;8.70;91.60
17341;DHT22;8788;49.930;8.660;2023-03-01T11:22:54;8.80;91.30
17341;DHT22;8788;49.930;8.660;2023-03-01T11:25:25;8.90;91.20
17341;DHT22;8788;49.930;8.660;2023-03-01T11:27:54;9.00;91.10
17341;DHT22;8788;49.930;8.660;2023-03-01T11:30:25;9.20;91.10
17341;DHT22;8788;49.930;8.660;2023-03-01T11:33:05;9.30;90.90
17341;DHT22;8788;49.930;8.660;2023-03-01T11:35:41;9.50;90.50
17341;DHT22;8788;49.930;8.660;2023-03-01T11:38:17;9.50;90.00
17341;DHT22;8788;49.930;8.660;2023-03-01T11:40:49;9.60;89.40
17341;DHT22;8788;49.930;8.660;2023-03-01T11:43:24;9.70;89.40
17341;DHT22;8788;49.930;8.660;2023-03-01T11:49:02;10.00;88.30
17341;DHT22;8788;49.930;8.660;2023-03-01T11:51:44;10.10;86.60
17341;DHT22;8788;49.930;8.660;2023-03-01T11:54:33;10.40;85.60
17341;DHT22;8788;49.930;8.660;2023-03-01T11:57:11;10.60;84.70
17341;DHT22;8788;49.930;8.660;2023-03-01T12:00:02;10.90;84.60
17341;DHT22;8788;49.930;8.660;2023-03-01T12:02:46;11.00;82.90
17341;DHT22;8788;49.930;8.660;2023-03-01T12:05:28;11.00;82.90
17341;DHT22;8788;49.930;8.660;2023-03-01T12:08:07;11.00;82.40
17341;DHT22;8788;49.930;8.660;2023-03-01T12:10:43;11.10;81.70
17341;DHT22;8788;49.930;8.660;2023-03-01T12:13:27;11.20;81.50
17341;DHT22;8788;49.930;8.660;2023-03-01T12:16:13;11.20;81.00
17341;DHT22;8788;49.930;8.660;2023-03-01T12:21:57;11.00;80.20
17341;DHT22;8788;49.930;8.660;2023-03-01T12:24:44;11.10;80.70
17341;DHT22;8788;49.930;8.660;2023-03-01T12:27:31;11.20;80.80
17341;DHT22;8788;49.930;8.660;2023-03-01T12:30:09;11.20;80.00
17341;DHT22;8788;49.930;8.660;2023-03-01T12:32:49;11.10;80.00
17341;DHT22;8788;49.930;8.660;2023-03-01T12:35:35;11.10;79.60
17341;DHT22;8788;49.930;8.660;2023-03-01T12:38:14;11.20;80.00
17341;DHT22;8788;49.930;8.660;2023-03-01T12:41:06;11.40;80.00
17341;DHT22;8788;49.930;8.660;2023-03-01T12:43:47;11.50;79.40
17341;DHT22;8788;49.930;8.660;2023-03-01T12:46:32;11.50;78.30
17341;DHT22;8788;49.930;8.660;2023-03-01T12:49:08;11.50;78.30
17341;DHT22;8788;49.930;8.660;2023-03-01T12:51:38;11.40;77.30
17341;DHT22;8788;49.930;8.660;2023-03-01T12:54:14;11.30;78.00
17341;DHT22;8788;49.930;8.660;2023-03-01T12:56:43;11.50;77.60
17341;DHT22;8788;49.930;8.660;2023-03-01T12:59:20;11.60;77.30
17341;DHT22;8788;49.930;8.660;2023-03-01T13:01:53;11.80;77.30
17341;DHT22;8788;49.930;8.660;2023-03-01T13:04:28;11.80;76.10
17341;DHT22;8788;49.930;8.660;2023-03-01T13:07:15;11.70;75.10
17341;DHT22;8788;49.930;8.660;2023-03-01T13:09:49;11.70;75.80
17341;DHT22;8788;49.930;8.660;2023-03-01T13:12:45;11.60;75.40
17341;DHT22;8788;49.930;8.660;2023-03-01T13:15:32;11.60;75.40
17341;DHT22;8788;49.930;8.660;2023-03-01T13:18:01;11.60;75.00
17341;DHT22;8788;49.930;8.660;2023-03-01T13:20:33;11.70;74.80
17341;DHT22;8788;49.930;8.660;2023-03-01T13:23:04;11.70;74.20
17341;DHT22;8788;49.930;8.660;2023-03-01T13:25:32;11.80;74.30
17341;DHT22;8788;49.930;8.660;2023-03-01T13:28:38;11.80;73.50
17341;DHT22;8788;49.930;8.660;2023-03-01T13:31:08;11.70;73.30
17341;DHT22;8788;49.930;8.660;2023-03-01T13:33:46;11.70;73.20
17341;DHT22;8788;49.930;8.660;2023-03-01T13:36:47;11.70;73.00
17341;DHT22;8788;49.930;8.660;2023-03-01T13:39:29;11.70;72.90
17341;DHT22;8788;49.930;8.660;2023-03-01T13:41:58;11.80;73.30
17341;DHT22;8788;49.930;8.660;2023-03-01T13:44:30;11.90;73.00
17341;DHT22;8788;49.930;8.660;2023-03-01T13:47:03;12.00;72.40
17341;DHT22;8788;49.930;8.660;2023-03-01T13:49:42;12.00;72.10
17341;DHT22;8788;49.930;8.660;2023-03-01T13:55:17;12.00;71.20
17341;DHT22;8788;49.930;8.660;2023-03-01T13:57:47;12.10;71.20
17341;DHT22;8788;49.930;8.660;2023-03-01T14:00:33;12.00;70.40
17341;DHT22;8788;49.930;8.660;2023-03-01T14:03:08;12.00;69.90
17341;DHT22;8788;49.930;8.660;2023-03-01T14:05:36;12.10;70.30
17341;DHT22;8788;49.930;8.660;2023-03-01T14:08:03;12.10;70.00
17341;DHT22;8788;49.930;8.660;2023-03-01T14:10:36;12.20;69.80
17341;DHT22;8788;49.930;8.660;2023-03-01T14:13:22;12.30;70.00
17341;DHT22;8788;49.930;8.660;2023-03-01T14:16:08;12.50;69.80
17341;DHT22;8788;49.930;8.660;2023-03-01T14:18:43;12.50;69.20
17341;DHT22;8788;49.930;8.660;2023-03-01T14:21:14;12.60;69.50
17341;DHT22;8788;49.930;8.660;2023-03-01T14:23:41;12.60;69.00
17341;DHT22;8788;49.930;8.660;2023-03-01T14:26:09;12.60;68.20
17341;DHT22;8788;49.930;8.660;2023-03-01T14:28:38;12.70;68.70
17341;DHT22;8788;49.930;8.660;2023-03-01T14:31:36;12.80;68.50
17341;DHT22;8788;49.930;8.660;2023-03-01T14:34:04;12.90;67.50
17341;DHT22;8788;49.930;8.660;2023-03-01T14:36:34;12.90;68.00
17341;DHT22;8788;49.930;8.660;2023-03-01T14:39:01;13.00;67.50
17341;DHT22;8788;49.930;8.660;2023-03-01T14:41:34;13.10;67.60
17341;DHT22;8788;49.930;8.660;2023-03-01T14:44:05;13.20;67.60
17341;DHT22;8788;49.930;8.660;2023-03-01T14:46:35;13.40;67.50
17341;DHT22;8788;49.930;8.660;2023-03-01T14:49:05;13.40;67.30
17341;DHT22;8788;49.930;8.660;2023-03-01T14:51:36;13.50;67.20
17341;DHT22;8788;49.930;8.660;2023-03-01T14:54:13;13.60;67.20
17341;DHT22;8788;49.930;8.660;2023-03-01T14:56:46;13.80;67.40
17341;DHT22;8788;49.930;8.660;2023-03-01T14:59:13;14.30;67.40
17341;DHT22;8788;49.930;8.660;2023-03-01T15:01:43;15.40;64.70
17341;DHT22;8788;49.930;8.660;2023-03-01T15:04:12;17.20;61.50
17341;DHT22;8788;49.930;8.660;2023-03-01T15:06:40;19.60;58.20
17341;DHT22;8788;49.930;8.660;2023-03-01T15:09:13;22.00;53.10
17341;DHT22;8788;49.930;8.660;2023-03-01T15:11:41;24.00;50.20
17341;DHT22;8788;49.930;8.660;2023-03-01T15:14:38;25.60;47.80
17341;DHT22;8788;49.930;8.660;2023-03-01T15:17:21;26.40;45.20
17341;DHT22;8788;49.930;8.660;2023-03-01T15:19:50;27.00;43.90
17341;DHT22;8788;49.930;8.660;2023-03-01T15:22:17;27.10;43.00
17341;DHT22;8788;49.930;8.660;2023-03-01T15:24:47;27.50;42.10
17341;DHT22;8788;49.930;8.660;2023-03-01T15:27:17;27.50;41.00
17341;DHT22;8788;49.930;8.660;2023-03-01T15:29:49;27.20;40.30
17341;DHT22;8788;49.930;8.660;2023-03-01T15:32:27;26.70;39.90
17341;DHT22;8788;49.930;8.660;2023-03-01T15:34:57;26.50;40.20
17341;DHT22;8788;49.930;8.660;2023-03-01T15:37:44;26.60;40.70
17341;DHT22;8788;49.930;8.660;2023-03-01T15:40:21;26.20;38.70
17341;DHT22;8788;49.930;8.660;2023-03-01T15:42:50;25.30;39.00
17341;DHT22;8788;49.930;8.660;2023-03-01T15:45:23;22.70;40.60
17341;DHT22;8788;49.930;8.660;2023-03-01T15:47:55;19.30;43.00
17341;DHT22;8788;49.930;8.660;2023-03-01T15:50:26;16.90;46.10
17341;DHT22;8788;49.930;8.660;2023-03-01T15:52:55;15.70;48.20
17341;DHT22;8788;49.930;8.660;2023-03-01T15:55:23;15.20;49.60
17341;DHT22;8788;49.930;8.660;2023-03-01T15:57:58;16.60;50.50
17341;DHT22;8788;49.930;8.660;2023-03-01T16:00:27;18.40;48.60
17341;DHT22;8788;49.930;8.660;2023-03-01T16:02:56;19.70;47.10
17341;DHT22;8788;49.930;8.660;2023-03-01T16:05:24;20.30;46.00
17341;DHT22;8788;49.930;8.660;2023-03-01T16:07:52;20.60;45.20
17341;DHT22;8788;49.930;8.660;2023-03-01T16:10:20;20.20;44.70
17341;DHT22;8788;49.930;8.660;2023-03-01T16:12:47;19.70;45.50
17341;DHT22;8788;49.930;8.660;2023-03-01T16:15:18;19.20;46.30
17341;DHT22;8788;49.930;8.660;2023-03-01T16:17:45;18.70;46.70
17341;DHT22;8788;49.930;8.660;2023-03-01T16:20:22;18.30;47.50
17341;DHT22;8788;49.930;8.660;2023-03-01T16:22:50;18.20;47.80
17341;DHT22;8788;49.930;8.660;2023-03-01T16:25:18;17.90;47.80
17341;DHT22;8788;49.930;8.660;2023-03-01T16:27:47;17.60;48.40
17341;DHT22;8788;49.930;8.660;2023-03-01T16:30:17;17.60;49.10
17341;DHT22;8788;49.930;8.660;2023-03-01T16:32:46;17.20;49.00